Time;durP1;ratioP1;P1;durP2;ratioP2;P2;SDS_P1;SDS_P2;PMS_P1;PMS_P2;Temp;Humidity;BMP_temperature;BMP_pressure;BME280_temperature;BME280_humidity;BME280_pressure;Samples;Min_cycle;Max_cycle;Signal;HPM_P1;HPM_P2
2023/12/18 00:01:15;;;;;;;50.63;34.80;;;3.90;99.90;;;;;;5081556;28;20244;-63
2023/12/18 00:03:42;;;;;;;46.87;31.20;;;3.90;99.90;;;;;;5078952;28;20661;-64
2023/12/18 00:06:09;;;;;;;53.47;33.83;;;3.90;99.90;;;;;;5080514;28;20643;-63
2023/12/18 00:08:36;;;;;;;53.57;35.27;;;3.90;99.90;;;;;;5079111;28;20546;-63
2023/12/18 00:11:03;;;;;;;51.87;35.17;;;3.90;99.90;;;;;;5085233;28;20212;-64
2023/12/18 00:13:31;;;;;;;52.30;33.87;;;3.90;99.90;;;;;;5077669;28;20181;-64
2023/12/18 00:15:58;;;;;;;49.93;33.07;;;3.90;99.90;;;;;;5077055;28;20213;-64
2023/12/18 00:18:25;;;;;;;55.07;33.40;;;3.80;99.90;;;;;;5080185;28;20212;-64
2023/12/18 00:20:52;;;;;;;48.47;30.93;;;3.80;99.90;;;;;;5083521;28;20215;-64
2023/12/18 00:23:19;;;;;;;45.20;29.40;;;3.80;99.90;;;;;;5082805;28;20231;-64
2023/12/18 00:25:47;;;;;;;48.40;32.07;;;3.80;99.90;;;;;;5079569;28;20198;-64
2023/12/18 00:28:14;;;;;;;45.57;30.90;;;3.80;99.90;;;;;;5081356;28;20606;-63
2023/12/18 00:30:41;;;;;;;43.20;28.93;;;3.70;99.90;;;;;;5084129;28;20276;-63
2023/12/18 00:33:08;;;;;;;44.60;29.43;;;3.70;99.90;;;;;;5087763;28;20207;-64
2023/12/18 00:35:35;;;;;;;44.60;31.10;;;3.70;99.90;;;;;;5084599;28;20194;-63
2023/12/18 00:38:02;;;;;;;47.27;30.30;;;3.70;99.90;;;;;;5079162;28;20201;-63
2023/12/18 00:40:30;;;;;;;48.63;32.00;;;3.70;99.90;;;;;;5082882;28;20207;-63
2023/12/18 00:42:57;;;;;;;48.17;30.00;;;3.70;99.90;;;;;;5081565;28;20742;-64
2023/12/18 00:45:24;;;;;;;42.80;28.23;;;3.70;99.90;;;;;;5085382;28;20203;-63
2023/12/18 00:47:52;;;;;;;46.57;29.57;;;3.70;99.90;;;;;;5079310;28;20187;-64
2023/12/18 00:50:19;;;;;;;50.10;29.33;;;3.60;99.90;;;;;;5082171;28;20212;-64
2023/12/18 00:52:47;;;;;;;41.67;28.63;;;3.60;99.90;;;;;;5080348;28;20623;-64
2023/12/18 00:55:14;;;;;;;43.17;27.53;;;3.60;99.90;;;;;;5083462;28;20200;-64
2023/12/18 00:57:41;;;;;;;40.40;28.53;;;3.60;99.90;;;;;;5083842;28;20341;-64
2023/12/18 01:00:10;;;;;;;37.63;27.27;;;3.60;99.90;;;;;;5081179;28;20286;-64
2023/12/18 01:02:37;;;;;;;46.60;28.10;;;3.60;99.90;;;;;;5084320;28;20201;-64
2023/12/18 01:05:04;;;;;;;43.33;28.33;;;3.50;99.90;;;;;;5076929;28;20226;-63
2023/12/18 01:07:31;;;;;;;41.30;27.00;;;3.50;99.90;;;;;;5080843;28;20266;-63
2023/12/18 01:09:59;;;;;;;40.10;25.60;;;3.40;99.90;;;;;;5079673;28;20221;-63
2023/12/18 01:12:26;;;;;;;39.27;24.93;;;3.40;99.90;;;;;;5087333;28;20513;-63
2023/12/18 01:14:53;;;;;;;38.03;24.27;;;3.40;99.90;;;;;;5079578;28;20295;-63
2023/12/18 01:17:21;;;;;;;34.37;22.53;;;3.40;99.90;;;;;;5076167;28;20254;-63
2023/12/18 01:20:02;;;;;;;32.93;22.57;;;3.30;99.90;;;;;;5084867;28;20286;-64
2023/12/18 01:22:30;;;;;;;37.77;24.33;;;3.30;99.90;;;;;;5085253;28;20206;-63
2023/12/18 01:24:57;;;;;;;31.83;21.07;;;3.30;99.90;;;;;;5085256;28;20643;-64
2023/12/18 01:27:24;;;;;;;32.43;23.13;;;3.30;99.90;;;;;;5087135;28;20216;-63
2023/12/18 01:29:51;;;;;;;30.53;20.90;;;3.30;99.90;;;;;;5077397;28;20212;-63
2023/12/18 01:32:18;;;;;;;35.03;22.40;;;3.20;99.90;;;;;;5083231;28;20205;-63
2023/12/18 01:34:45;;;;;;;32.10;21.10;;;3.30;99.90;;;;;;5083057;28;20200;-64
2023/12/18 01:37:12;;;;;;;30.70;21.73;;;3.30;99.90;;;;;;5080593;28;20288;-64
2023/12/18 01:39:39;;;;;;;32.67;21.03;;;3.30;99.90;;;;;;5082530;28;20530;-64
2023/12/18 01:42:07;;;;;;;31.53;19.83;;;3.30;99.90;;;;;;5083201;28;20296;-64
2023/12/18 01:44:34;;;;;;;28.43;18.57;;;3.30;99.90;;;;;;5083638;28;20204;-64
2023/12/18 01:47:01;;;;;;;31.83;17.03;;;3.30;99.90;;;;;;5082115;28;20298;-64
2023/12/18 01:49:28;;;;;;;29.00;18.77;;;3.20;99.80;;;;;;5081229;28;20237;-64
2023/12/18 01:51:56;;;;;;;27.90;16.93;;;3.20;99.70;;;;;;5082880;28;20248;-64
2023/12/18 01:54:23;;;;;;;26.03;16.03;;;3.20;99.70;;;;;;5080940;28;20194;-64
2023/12/18 01:56:54;;;;;;;27.83;18.03;;;3.20;99.90;;;;;;5082867;28;20213;-64
2023/12/18 01:59:23;;;;;;;24.10;16.33;;;3.20;99.80;;;;;;5083263;28;20210;-64
2023/12/18 02:01:51;;;;;;;21.10;15.03;;;3.20;99.80;;;;;;5087183;28;20240;-64
2023/12/18 02:04:19;;;;;;;20.33;14.73;;;3.20;99.70;;;;;;5085264;28;20212;-64
2023/12/18 02:06:47;;;;;;;21.77;14.97;;;3.20;99.60;;;;;;5079595;28;20212;-64
2023/12/18 02:09:15;;;;;;;21.03;15.03;;;3.20;99.50;;;;;;5081462;28;20224;-64
2023/12/18 02:11:44;;;;;;;19.90;14.30;;;3.10;99.50;;;;;;5078961;28;20197;-64
2023/12/18 02:14:12;;;;;;;19.67;14.23;;;3.10;99.40;;;;;;5085177;28;20229;-64
2023/12/18 02:16:40;;;;;;;21.77;14.20;;;3.10;99.40;;;;;;5085254;28;20226;-64
2023/12/18 02:19:28;;;;;;;24.47;15.47;;;3.10;99.40;;;;;;5085836;28;20194;-64
2023/12/18 02:21:56;;;;;;;20.87;13.77;;;3.10;99.40;;;;;;5087462;28;20212;-64
2023/12/18 02:24:24;;;;;;;25.00;14.80;;;3.10;99.40;;;;;;5068958;28;20206;-64
2023/12/18 02:26:52;;;;;;;21.00;14.70;;;3.10;99.30;;;;;;5085579;28;20223;-64
2023/12/18 02:29:19;;;;;;;25.23;13.93;;;3.10;99.30;;;;;;5082821;28;20223;-64
2023/12/18 02:31:46;;;;;;;21.97;14.67;;;3.10;99.30;;;;;;5072809;28;20685;-64
2023/12/18 02:34:13;;;;;;;22.77;13.63;;;3.10;99.30;;;;;;5082638;28;20204;-64
2023/12/18 02:36:40;;;;;;;18.30;14.20;;;3.10;99.20;;;;;;5089879;28;20660;-64
2023/12/18 02:39:07;;;;;;;20.67;12.63;;;3.10;99.20;;;;;;5082696;28;20220;-64
2023/12/18 02:41:35;;;;;;;17.87;12.50;;;3.00;99.10;;;;;;5086176;28;20298;-64
2023/12/18 02:44:02;;;;;;;18.60;14.10;;;3.00;99.10;;;;;;5083072;28;20254;-64
2023/12/18 02:46:29;;;;;;;19.67;14.33;;;3.00;99.10;;;;;;5087297;28;20234;-63
2023/12/18 02:48:56;;;;;;;16.53;12.47;;;3.00;99.00;;;;;;5083907;28;20219;-64
2023/12/18 02:51:23;;;;;;;22.13;15.20;;;3.00;98.90;;;;;;5082295;28;20274;-64
2023/12/18 02:53:50;;;;;;;17.50;12.93;;;2.90;98.80;;;;;;5084601;28;20205;-64
2023/12/18 02:56:17;;;;;;;17.80;12.80;;;2.90;98.90;;;;;;5081955;28;20192;-64
2023/12/18 02:58:44;;;;;;;17.07;12.70;;;2.90;98.90;;;;;;5082338;28;20197;-63
2023/12/18 03:01:12;;;;;;;18.00;13.50;;;2.90;98.90;;;;;;5080456;28;20235;-64
2023/12/18 03:03:39;;;;;;;18.83;12.70;;;2.90;98.90;;;;;;5085338;28;20193;-64
2023/12/18 03:06:06;;;;;;;16.57;12.97;;;2.90;98.90;;;;;;5082582;28;20201;-64
2023/12/18 03:08:33;;;;;;;23.13;13.20;;;2.90;98.90;;;;;;5079826;28;20253;-64
2023/12/18 03:11:01;;;;;;;18.20;12.37;;;2.90;98.90;;;;;;5081249;28;20528;-64
2023/12/18 03:13:28;;;;;;;18.73;12.83;;;2.90;98.90;;;;;;5088193;28;20206;-64
2023/12/18 03:15:57;;;;;;;20.47;12.77;;;2.90;98.90;;;;;;5086330;28;20229;-64
2023/12/18 03:18:24;;;;;;;19.23;13.30;;;2.90;98.90;;;;;;5082227;28;20622;-63
2023/12/18 03:20:51;;;;;;;19.50;12.23;;;2.90;98.90;;;;;;5081375;28;20203;-63
2023/12/18 03:23:18;;;;;;;19.37;13.43;;;2.90;98.90;;;;;;5081206;28;20514;-64
2023/12/18 03:25:45;;;;;;;21.60;13.50;;;2.90;98.90;;;;;;5084886;28;20283;-64
2023/12/18 03:28:13;;;;;;;18.37;12.67;;;2.90;98.80;;;;;;5082445;28;20685;-64
2023/12/18 03:30:40;;;;;;;18.63;11.83;;;2.90;98.80;;;;;;5086046;28;20215;-64
2023/12/18 03:33:07;;;;;;;18.33;13.07;;;2.90;98.90;;;;;;5084129;28;20224;-63
2023/12/18 03:35:34;;;;;;;17.40;11.90;;;2.90;98.90;;;;;;5083578;28;20576;-64
2023/12/18 03:38:02;;;;;;;16.40;12.53;;;2.90;98.90;;;;;;5081839;28;20204;-64
2023/12/18 03:40:29;;;;;;;15.70;11.40;;;2.90;98.90;;;;;;5082851;28;20269;-64
2023/12/18 03:42:56;;;;;;;16.30;11.83;;;2.90;98.80;;;;;;5085007;28;20208;-64
2023/12/18 03:45:22;;;;;;;16.77;12.40;;;2.90;98.80;;;;;;5084550;28;20204;-63
2023/12/18 03:47:49;;;;;;;18.23;12.13;;;2.90;98.80;;;;;;5089593;28;20205;-63
2023/12/18 03:50:17;;;;;;;20.20;12.60;;;2.90;98.80;;;;;;5083530;28;20298;-64
2023/12/18 03:52:44;;;;;;;21.93;12.50;;;2.90;98.80;;;;;;5084522;28;20227;-64
2023/12/18 03:55:11;;;;;;;17.10;11.73;;;2.90;98.80;;;;;;5084506;28;20201;-64
2023/12/18 03:57:39;;;;;;;16.77;10.93;;;2.90;98.70;;;;;;5084482;28;20208;-64
2023/12/18 04:00:07;;;;;;;19.87;12.27;;;2.90;98.70;;;;;;5082285;28;20200;-63
2023/12/18 04:02:38;;;;;;;19.67;12.17;;;2.90;98.80;;;;;;5084651;28;20258;-63
2023/12/18 04:05:06;;;;;;;16.43;11.77;;;2.90;98.70;;;;;;5082919;28;20198;-63
2023/12/18 04:07:33;;;;;;;16.30;11.73;;;2.90;98.70;;;;;;5084382;28;20630;-63
2023/12/18 04:10:00;;;;;;;16.53;11.13;;;2.90;98.70;;;;;;5082069;28;20296;-63
2023/12/18 04:12:27;;;;;;;19.20;12.03;;;2.90;98.70;;;;;;5090071;28;20209;-63
2023/12/18 04:14:54;;;;;;;18.07;10.97;;;2.90;98.70;;;;;;5082135;28;20536;-63
2023/12/18 04:17:21;;;;;;;15.33;10.97;;;2.90;98.70;;;;;;5086948;28;20694;-63
2023/12/18 04:19:49;;;;;;;15.67;10.97;;;2.90;98.70;;;;;;5076589;28;20197;-63
2023/12/18 04:22:16;;;;;;;19.73;11.57;;;2.90;98.70;;;;;;5083335;28;20207;-63
2023/12/18 04:24:43;;;;;;;14.00;10.80;;;2.90;98.70;;;;;;5084486;28;20211;-63
2023/12/18 04:27:10;;;;;;;16.77;11.50;;;2.90;98.70;;;;;;5078346;28;20204;-63
2023/12/18 04:29:37;;;;;;;16.27;11.60;;;2.90;98.60;;;;;;5085778;28;20236;-63
2023/12/18 04:32:05;;;;;;;15.53;11.20;;;2.90;98.50;;;;;;5078571;28;20314;-63
2023/12/18 04:34:33;;;;;;;18.67;12.00;;;2.90;98.60;;;;;;5083525;28;20640;-65
2023/12/18 04:37:01;;;;;;;17.70;11.50;;;2.80;98.50;;;;;;5081487;28;20197;-64
2023/12/18 04:39:32;;;;;;;15.60;11.07;;;2.80;98.50;;;;;;5083509;28;20200;-63
2023/12/18 04:42:01;;;;;;;16.57;10.87;;;2.80;98.50;;;;;;5084069;28;20282;-63
2023/12/18 04:44:29;;;;;;;21.57;12.13;;;2.80;98.50;;;;;;5064930;28;20215;-63
2023/12/18 04:46:56;;;;;;;15.03;10.50;;;2.80;98.50;;;;;;5087407;28;20285;-64
2023/12/18 04:49:25;;;;;;;16.90;11.20;;;2.80;98.50;;;;;;5071443;28;20216;-63
2023/12/18 04:51:52;;;;;;;17.17;11.63;;;2.80;98.50;;;;;;5088401;28;20642;-63
2023/12/18 04:54:21;;;;;;;17.90;10.53;;;2.80;98.80;;;;;;5085907;28;20205;-63
2023/12/18 04:56:48;;;;;;;17.07;11.37;;;2.80;98.50;;;;;;5071278;28;20549;-63
2023/12/18 04:59:16;;;;;;;19.50;11.30;;;2.80;98.50;;;;;;5083073;28;20224;-63
2023/12/18 05:01:45;;;;;;;12.63;9.70;;;2.80;98.40;;;;;;5070620;28;20244;-63
2023/12/18 05:04:13;;;;;;;15.90;10.47;;;2.80;98.40;;;;;;5082233;28;20207;-63
2023/12/18 05:06:41;;;;;;;19.93;10.40;;;2.70;98.40;;;;;;5069457;28;20204;-63
2023/12/18 05:09:08;;;;;;;20.87;11.73;;;2.70;98.40;;;;;;5083228;28;20647;-63
2023/12/18 05:11:35;;;;;;;16.47;10.00;;;2.70;98.40;;;;;;5081335;28;20208;-63
2023/12/18 05:14:02;;;;;;;16.47;10.03;;;2.70;98.40;;;;;;5079386;28;20293;-63
2023/12/18 05:16:29;;;;;;;20.53;9.87;;;2.70;98.50;;;;;;5085933;28;20311;-63
2023/12/18 05:18:56;;;;;;;15.10;10.07;;;2.70;98.50;;;;;;5082838;28;20486;-63
2023/12/18 05:21:24;;;;;;;11.93;9.07;;;2.80;98.50;;;;;;5078567;28;20258;-63
2023/12/18 05:23:51;;;;;;;16.00;10.00;;;2.80;98.50;;;;;;5082848;28;20683;-63
2023/12/18 05:26:18;;;;;;;16.80;9.50;;;2.80;98.50;;;;;;5080932;28;20637;-63
2023/12/18 05:28:45;;;;;;;13.43;8.53;;;2.80;98.50;;;;;;5084358;28;20522;-63
2023/12/18 05:31:12;;;;;;;15.30;9.77;;;2.80;98.40;;;;;;5078970;28;20306;-63
2023/12/18 05:33:40;;;;;;;15.60;10.47;;;2.80;98.30;;;;;;5082357;28;20300;-63
2023/12/18 05:36:07;;;;;;;15.30;10.60;;;2.80;98.40;;;;;;5080329;28;20667;-63
2023/12/18 05:38:34;;;;;;;17.67;10.83;;;2.80;98.40;;;;;;5079970;28;20253;-63
2023/12/18 05:41:02;;;;;;;16.27;9.13;;;2.80;98.40;;;;;;5080859;28;20216;-63
2023/12/18 05:43:29;;;;;;;15.93;10.60;;;2.80;98.30;;;;;;5079374;28;20210;-63
2023/12/18 05:45:56;;;;;;;18.60;10.40;;;2.80;98.30;;;;;;5079592;28;20207;-63
2023/12/18 05:48:23;;;;;;;12.80;9.40;;;2.70;98.30;;;;;;5081092;28;20665;-63
2023/12/18 05:50:50;;;;;;;11.83;9.00;;;2.70;98.30;;;;;;5078413;28;20231;-63
2023/12/18 05:53:17;;;;;;;13.60;9.43;;;2.70;98.30;;;;;;5078884;28;20202;-63
2023/12/18 05:55:44;;;;;;;13.70;9.77;;;2.70;98.30;;;;;;5078388;28;20673;-63
2023/12/18 05:58:11;;;;;;;16.87;9.40;;;2.70;98.30;;;;;;5080575;28;20194;-63
2023/12/18 06:00:38;;;;;;;12.77;8.80;;;2.80;98.40;;;;;;5081874;28;20582;-63
2023/12/18 06:03:05;;;;;;;14.27;8.93;;;2.80;98.40;;;;;;5081288;28;20237;-63
2023/12/18 06:05:33;;;;;;;15.40;8.57;;;2.70;98.30;;;;;;5077382;28;20201;-63
2023/12/18 06:08:00;;;;;;;13.70;8.67;;;2.80;98.30;;;;;;5076616;28;20236;-63
2023/12/18 06:10:27;;;;;;;13.83;9.20;;;2.80;98.30;;;;;;5091441;28;20220;-63
2023/12/18 06:12:54;;;;;;;16.10;9.30;;;2.70;98.30;;;;;;5079672;28;20218;-63
2023/12/18 06:15:21;;;;;;;12.07;9.13;;;2.70;98.30;;;;;;5087028;28;20214;-63
2023/12/18 06:17:48;;;;;;;14.77;10.50;;;2.70;98.30;;;;;;5084375;28;20262;-63
2023/12/18 06:20:16;;;;;;;14.70;9.47;;;2.80;98.40;;;;;;5084859;28;20296;-63
2023/12/18 06:22:43;;;;;;;18.07;9.97;;;2.80;98.40;;;;;;5087148;28;20279;-63
2023/12/18 06:25:10;;;;;;;13.70;10.07;;;2.80;98.40;;;;;;5084280;28;20213;-64
2023/12/18 06:27:37;;;;;;;15.03;10.07;;;2.80;98.40;;;;;;5082135;28;20215;-64
2023/12/18 06:30:05;;;;;;;13.57;9.43;;;2.80;98.40;;;;;;5085015;28;20216;-64
2023/12/18 06:32:33;;;;;;;16.17;9.37;;;2.80;98.40;;;;;;5086876;28;20198;-64
2023/12/18 06:35:00;;;;;;;15.23;9.53;;;2.90;98.70;;;;;;5080491;28;20205;-63
2023/12/18 06:37:27;;;;;;;12.87;8.83;;;2.90;98.40;;;;;;5081269;28;20279;-64
2023/12/18 06:39:57;;;;;;;14.80;9.77;;;2.90;98.40;;;;;;5081588;28;20874;-64
2023/12/18 06:42:24;;;;;;;13.30;9.43;;;2.90;98.40;;;;;;5086080;28;20209;-64
2023/12/18 06:44:51;;;;;;;16.70;9.47;;;2.90;98.40;;;;;;5082034;28;20285;-64
2023/12/18 06:47:18;;;;;;;21.90;9.80;;;3.00;98.30;;;;;;5086014;28;20231;-64
2023/12/18 06:49:45;;;;;;;14.13;10.20;;;3.00;98.20;;;;;;5081352;28;20221;-63
2023/12/18 06:52:14;;;;;;;16.20;9.33;;;3.00;98.20;;;;;;5083603;28;20208;-65
2023/12/18 06:54:42;;;;;;;15.67;9.90;;;3.00;98.10;;;;;;5084125;28;20540;-64
2023/12/18 06:57:11;;;;;;;17.27;9.47;;;3.00;98.10;;;;;;5085849;28;20665;-64
2023/12/18 06:59:39;;;;;;;17.20;9.43;;;3.00;98.20;;;;;;5082670;28;20201;-64
2023/12/18 07:02:06;;;;;;;14.00;9.67;;;3.00;98.20;;;;;;5086117;28;20919;-64
2023/12/18 07:04:33;;;;;;;15.10;9.97;;;3.00;98.20;;;;;;5082918;28;20646;-64
2023/12/18 07:07:00;;;;;;;12.53;9.37;;;3.00;98.20;;;;;;5083003;28;20204;-64
2023/12/18 07:09:27;;;;;;;15.47;10.30;;;3.00;98.20;;;;;;5086612;28;20623;-64
2023/12/18 07:11:54;;;;;;;13.57;10.03;;;3.00;98.20;;;;;;5079901;28;20315;-64
2023/12/18 07:14:21;;;;;;;15.03;9.43;;;3.00;98.20;;;;;;5081100;28;20214;-64
2023/12/18 07:16:48;;;;;;;14.07;8.80;;;3.10;98.20;;;;;;5085276;28;20205;-64
2023/12/18 07:19:16;;;;;;;15.97;9.93;;;3.10;98.20;;;;;;5079791;28;20541;-64
2023/12/18 07:21:43;;;;;;;19.53;10.63;;;3.10;98.20;;;;;;5083710;28;20209;-64
2023/12/18 07:24:10;;;;;;;17.07;9.30;;;3.10;98.20;;;;;;5084560;28;20267;-64
2023/12/18 07:26:37;;;;;;;12.90;9.03;;;3.20;98.20;;;;;;5076173;28;20262;-64
2023/12/18 07:29:04;;;;;;;16.70;11.13;;;3.20;98.20;;;;;;5079266;28;20220;-65
2023/12/18 07:31:32;;;;;;;18.80;10.50;;;3.30;98.20;;;;;;5086649;28;20223;-64
2023/12/18 07:33:59;;;;;;;16.63;10.30;;;3.30;98.10;;;;;;5087981;28;20288;-64
2023/12/18 07:36:26;;;;;;;18.10;10.63;;;3.40;98.20;;;;;;5082897;28;20273;-64
2023/12/18 07:38:53;;;;;;;14.57;10.67;;;3.50;98.20;;;;;;5084612;28;20207;-64
2023/12/18 07:41:20;;;;;;;21.27;10.40;;;3.50;98.20;;;;;;5087960;28;20573;-64
2023/12/18 07:43:47;;;;;;;15.10;10.37;;;3.60;98.20;;;;;;5085567;28;20201;-63
2023/12/18 07:46:21;;;;;;;16.77;10.23;;;3.70;98.10;;;;;;5084449;28;20197;-64
2023/12/18 07:48:49;;;;;;;15.13;10.40;;;3.70;98.10;;;;;;5081785;28;20192;-64
2023/12/18 07:51:16;;;;;;;17.87;11.13;;;3.80;98.00;;;;;;5085910;28;20224;-64
2023/12/18 07:53:44;;;;;;;17.60;10.97;;;3.90;98.00;;;;;;5082787;28;20544;-64
2023/12/18 07:56:11;;;;;;;20.03;10.10;;;4.00;97.90;;;;;;5089185;28;20236;-64
2023/12/18 07:58:41;;;;;;;17.17;10.27;;;4.10;97.80;;;;;;5082243;28;20514;-64
2023/12/18 08:01:09;;;;;;;20.27;12.37;;;4.10;97.70;;;;;;5082322;28;20340;-64
2023/12/18 08:03:36;;;;;;;15.90;10.60;;;4.20;97.60;;;;;;5082958;28;20211;-61
2023/12/18 08:06:07;;;;;;;24.30;12.57;;;4.20;97.70;;;;;;5083904;28;20233;-62
2023/12/18 08:08:34;;;;;;;26.83;21.20;;;4.30;97.60;;;;;;5082005;28;20206;-62
2023/12/18 08:11:02;;;;;;;51.30;40.17;;;4.40;97.50;;;;;;5081726;28;20225;-62
2023/12/18 08:13:29;;;;;;;24.93;17.83;;;4.40;97.40;;;;;;5083168;28;20522;-62
2023/12/18 08:15:56;;;;;;;21.17;12.83;;;4.50;97.50;;;;;;5085826;28;20198;-61
2023/12/18 08:18:23;;;;;;;20.27;13.73;;;4.60;97.40;;;;;;5077872;28;20546;-62
2023/12/18 08:20:50;;;;;;;19.60;12.83;;;4.60;97.40;;;;;;5076578;28;20612;-62
2023/12/18 08:23:17;;;;;;;18.30;12.90;;;4.70;97.30;;;;;;5080930;28;20268;-62
2023/12/18 08:25:44;;;;;;;17.97;10.43;;;4.80;97.20;;;;;;5079271;28;20208;-62
2023/12/18 08:28:11;;;;;;;14.23;9.50;;;4.90;97.10;;;;;;5075925;28;20214;-62
2023/12/18 08:30:38;;;;;;;15.83;10.07;;;4.90;97.10;;;;;;5081582;28;20254;-62
2023/12/18 08:33:05;;;;;;;12.43;9.50;;;5.00;97.00;;;;;;5082803;28;20189;-62
2023/12/18 08:35:33;;;;;;;15.23;11.33;;;5.10;96.90;;;;;;5084743;28;20217;-62
2023/12/18 08:38:00;;;;;;;12.77;10.30;;;5.20;96.80;;;;;;5077328;28;20198;-62
2023/12/18 08:40:29;;;;;;;16.13;10.60;;;5.30;96.80;;;;;;5085889;28;20211;-62
2023/12/18 08:42:57;;;;;;;12.57;9.17;;;5.40;96.70;;;;;;5081046;28;20205;-62
2023/12/18 08:45:24;;;;;;;13.40;8.10;;;5.40;96.60;;;;;;5079397;28;20623;-62
2023/12/18 08:47:52;;;;;;;10.60;7.00;;;5.50;96.50;;;;;;5083306;28;20213;-62
2023/12/18 08:50:19;;;;;;;9.87;7.13;;;5.60;96.40;;;;;;5076528;28;20226;-62
2023/12/18 08:52:46;;;;;;;11.80;7.90;;;5.70;96.30;;;;;;5088279;28;20257;-62
2023/12/18 08:55:13;;;;;;;19.97;7.53;;;5.80;96.20;;;;;;5079550;28;20197;-61
2023/12/18 08:57:40;;;;;;;12.73;8.03;;;5.90;96.10;;;;;;5085456;28;20200;-63
2023/12/18 09:00:09;;;;;;;10.50;7.83;;;6.00;96.00;;;;;;5083264;28;20638;-62
2023/12/18 09:02:36;;;;;;;12.83;8.50;;;6.00;95.90;;;;;;5082612;28;20283;-63
2023/12/18 09:05:04;;;;;;;15.03;7.87;;;6.20;95.80;;;;;;5078545;28;20273;-62
2023/12/18 09:07:31;;;;;;;11.90;7.77;;;6.20;95.70;;;;;;5082857;28;20203;-62
2023/12/18 09:09:58;;;;;;;10.67;7.77;;;6.30;95.70;;;;;;5084172;28;20263;-63
2023/12/18 09:12:25;;;;;;;12.70;7.63;;;6.40;95.60;;;;;;5083171;28;20336;-63
2023/12/18 09:14:52;;;;;;;11.03;7.57;;;6.50;95.40;;;;;;5089806;28;20604;-63
2023/12/18 09:17:19;;;;;;;11.63;7.50;;;6.60;95.30;;;;;;5079164;28;20300;-62
2023/12/18 09:19:46;;;;;;;10.70;8.47;;;6.70;95.30;;;;;;5081421;28;20247;-62
2023/12/18 09:22:14;;;;;;;12.60;9.00;;;6.70;95.20;;;;;;5083413;28;20734;-62
2023/12/18 09:24:41;;;;;;;12.10;8.23;;;6.80;95.00;;;;;;5084231;28;20548;-62
2023/12/18 09:27:09;;;;;;;12.23;8.13;;;6.90;94.90;;;;;;5077626;28;20624;-62
2023/12/18 09:29:36;;;;;;;13.20;8.73;;;7.00;94.80;;;;;;5082878;28;20203;-62
2023/12/18 09:32:03;;;;;;;11.37;9.03;;;7.10;94.80;;;;;;5084551;28;20210;-62
2023/12/18 09:34:30;;;;;;;14.37;9.07;;;7.20;94.70;;;;;;5086349;28;20189;-62
2023/12/18 09:36:58;;;;;;;12.63;9.10;;;7.30;94.50;;;;;;5087195;28;20205;-62
2023/12/18 09:39:25;;;;;;;13.43;9.57;;;7.40;94.40;;;;;;5079241;28;20236;-62
2023/12/18 09:41:52;;;;;;;12.87;9.50;;;7.50;94.30;;;;;;5079740;28;20205;-62
2023/12/18 09:44:20;;;;;;;16.60;10.63;;;7.60;94.30;;;;;;5084518;28;20640;-62
2023/12/18 09:46:47;;;;;;;16.37;11.30;;;7.70;94.30;;;;;;5088699;28;20635;-62
2023/12/18 09:49:14;;;;;;;20.87;12.47;;;7.80;94.20;;;;;;5088293;28;20626;-62
2023/12/18 09:51:43;;;;;;;18.97;11.90;;;7.90;94.10;;;;;;5082418;28;20311;-62
2023/12/18 09:54:12;;;;;;;16.93;11.70;;;8.00;94.00;;;;;;5086059;28;20198;-66
2023/12/18 09:56:41;;;;;;;20.17;13.07;;;8.10;93.80;;;;;;5087301;28;20194;-62
2023/12/18 09:59:10;;;;;;;17.90;12.23;;;8.20;93.80;;;;;;5084257;28;20581;-63
2023/12/18 10:01:38;;;;;;;19.97;13.33;;;8.30;93.80;;;;;;5080027;28;20639;-63
2023/12/18 10:04:06;;;;;;;15.57;12.27;;;8.40;93.80;;;;;;5085258;28;20202;-62
2023/12/18 10:06:33;;;;;;;22.33;14.07;;;8.50;93.90;;;;;;5081750;28;20564;-62
2023/12/18 10:09:09;;;;;;;19.90;13.33;;;8.70;93.80;;;;;;5082013;28;20631;-63
2023/12/18 10:11:36;;;;;;;29.83;14.97;;;8.80;93.70;;;;;;5085680;28;20209;-62
2023/12/18 10:14:03;;;;;;;23.77;14.00;;;8.90;93.70;;;;;;5086557;28;20569;-62
2023/12/18 10:16:32;;;;;;;20.67;14.83;;;9.00;93.70;;;;;;5089413;28;20631;-62
2023/12/18 10:18:59;;;;;;;22.67;15.87;;;9.00;93.60;;;;;;5083777;28;20195;-63
2023/12/18 10:21:26;;;;;;;23.20;15.13;;;9.20;93.60;;;;;;5081503;28;20210;-63
2023/12/18 10:23:54;;;;;;;19.43;14.43;;;9.20;93.50;;;;;;5089156;28;20304;-62
2023/12/18 10:26:22;;;;;;;23.57;16.60;;;9.30;93.50;;;;;;5084238;28;20206;-62
2023/12/18 10:28:51;;;;;;;24.53;16.07;;;9.30;93.40;;;;;;5081538;28;20195;-62
2023/12/18 10:31:19;;;;;;;26.63;16.03;;;9.40;93.40;;;;;;5086056;28;20218;-62
2023/12/18 10:33:46;;;;;;;26.47;16.73;;;9.40;93.40;;;;;;5078049;28;20210;-62
2023/12/18 10:36:16;;;;;;;21.77;15.67;;;9.50;93.30;;;;;;5086336;28;20194;-63
2023/12/18 10:38:49;;;;;;;25.60;16.43;;;9.60;93.30;;;;;;5084728;28;20218;-62
2023/12/18 10:41:21;;;;;;;23.30;16.67;;;9.70;93.30;;;;;;5087981;28;20204;-63
2023/12/18 10:43:50;;;;;;;24.77;17.60;;;9.80;93.20;;;;;;5087023;28;20285;-63
2023/12/18 10:46:21;;;;;;;22.60;16.67;;;9.80;93.10;;;;;;5080237;28;20207;-63
2023/12/18 10:48:51;;;;;;;25.57;17.23;;;9.90;93.10;;;;;;5101683;28;20199;-62
2023/12/18 10:51:20;;;;;;;26.87;18.87;;;10.00;93.10;;;;;;5083198;28;20214;-63
2023/12/18 10:53:53;;;;;;;22.90;17.77;;;10.00;93.10;;;;;;5076909;28;20199;-62
2023/12/18 10:56:22;;;;;;;25.00;16.77;;;10.10;93.00;;;;;;5081827;28;20227;-63
2023/12/18 10:58:51;;;;;;;26.83;17.00;;;10.20;93.00;;;;;;5083140;28;20212;-62
2023/12/18 11:01:19;;;;;;;23.73;18.60;;;10.20;93.00;;;;;;5085257;28;20288;-63
2023/12/18 11:03:47;;;;;;;25.83;17.97;;;10.30;93.00;;;;;;5082276;28;20211;-62
2023/12/18 11:06:16;;;;;;;23.87;17.87;;;10.40;92.90;;;;;;5083041;28;20910;-63
2023/12/18 11:08:46;;;;;;;24.93;18.20;;;10.50;92.70;;;;;;5084465;28;20192;-62
2023/12/18 11:11:14;;;;;;;29.03;18.53;;;10.60;92.60;;;;;;5083421;28;20274;-62
2023/12/18 11:14:21;;;;;;;28.47;18.17;;;10.70;92.50;;;;;;5080172;28;20285;-63
2023/12/18 11:17:02;;;;;;;26.50;17.67;;;10.80;92.50;;;;;;5073910;28;20208;-63
2023/12/18 11:19:51;;;;;;;26.00;19.20;;;10.90;92.40;;;;;;5084365;28;20252;-62
2023/12/18 11:22:23;;;;;;;24.90;18.67;;;11.00;92.30;;;;;;5081802;28;20271;-63
2023/12/18 11:24:50;;;;;;;27.03;19.23;;;11.10;92.20;;;;;;5081488;28;20200;-63
2023/12/18 11:27:18;;;;;;;25.47;18.17;;;11.20;92.10;;;;;;5079187;28;20259;-63
2023/12/18 11:29:48;;;;;;;25.73;18.57;;;11.30;92.00;;;;;;5089765;28;20291;-63
2023/12/18 11:32:46;;;;;;;25.27;18.30;;;11.40;91.90;;;;;;5085586;28;20296;-62
2023/12/18 11:35:15;;;;;;;22.43;17.53;;;11.50;91.80;;;;;;5085149;28;20196;-63
2023/12/18 11:37:48;;;;;;;24.47;18.77;;;11.60;91.70;;;;;;5078630;28;20205;-63
2023/12/18 11:40:36;;;;;;;25.73;18.07;;;11.70;91.70;;;;;;5082916;28;20287;-62
2023/12/18 11:43:04;;;;;;;26.37;19.50;;;11.80;91.70;;;;;;5084054;28;20311;-63
2023/12/18 11:45:34;;;;;;;26.53;18.87;;;11.90;91.60;;;;;;5083473;28;20288;-62
2023/12/18 11:48:02;;;;;;;28.00;21.07;;;11.90;91.50;;;;;;5079150;28;20641;-63
2023/12/18 11:50:37;;;;;;;33.43;21.70;;;12.10;91.40;;;;;;5084778;28;20552;-62
2023/12/18 11:53:18;;;;;;;26.87;20.77;;;12.10;91.20;;;;;;5085230;28;20523;-62
2023/12/18 11:55:54;;;;;;;30.80;20.30;;;12.20;91.20;;;;;;5081109;28;20196;-62
2023/12/18 11:58:27;;;;;;;27.67;20.40;;;12.20;91.10;;;;;;5084208;28;20213;-63
2023/12/18 12:00:56;;;;;;;32.73;20.93;;;12.30;91.10;;;;;;5085745;28;20236;-63
2023/12/18 12:03:25;;;;;;;27.33;21.40;;;12.40;91.00;;;;;;5082494;28;20228;-63
2023/12/18 12:05:52;;;;;;;31.87;21.80;;;12.50;90.80;;;;;;5080063;28;20576;-63
2023/12/18 12:08:19;;;;;;;28.97;20.93;;;12.50;90.60;;;;;;5080720;28;20204;-65
2023/12/18 12:10:48;;;;;;;28.33;21.57;;;12.60;90.40;;;;;;5079069;28;20198;-63
2023/12/18 12:13:23;;;;;;;29.70;21.50;;;12.60;90.30;;;;;;5077693;28;20274;-63
2023/12/18 12:15:58;;;;;;;30.57;21.93;;;12.70;90.10;;;;;;5078224;28;20197;-63
2023/12/18 12:18:45;;;;;;;30.63;23.07;;;12.70;89.90;;;;;;5082402;28;20204;-63
2023/12/18 12:21:13;;;;;;;32.90;21.67;;;12.70;90.00;;;;;;5079914;28;20203;-63
2023/12/18 12:23:41;;;;;;;32.50;23.13;;;12.80;90.00;;;;;;5078646;28;20233;-62
2023/12/18 12:26:09;;;;;;;28.40;21.70;;;12.90;89.90;;;;;;5079113;28;20208;-63
2023/12/18 12:28:36;;;;;;;28.27;22.43;;;12.90;89.70;;;;;;5084147;28;20192;-63
2023/12/18 12:31:06;;;;;;;27.83;20.77;;;13.00;89.50;;;;;;5083061;28;20205;-63
2023/12/18 12:33:40;;;;;;;29.50;21.90;;;13.00;89.20;;;;;;5080460;28;20890;-62
2023/12/18 12:36:09;;;;;;;26.77;20.70;;;13.10;88.70;;;;;;5087352;28;20197;-62
2023/12/18 12:38:43;;;;;;;30.37;20.90;;;13.20;88.40;;;;;;5084241;28;20197;-62
2023/12/18 12:41:11;;;;;;;29.60;21.30;;;13.20;87.80;;;;;;5087268;28;20196;-62
2023/12/18 12:43:38;;;;;;;31.77;21.53;;;13.20;87.50;;;;;;5085875;28;20197;-62